Time;durP1;ratioP1;P1;durP2;ratioP2;P2;SDS_P1;SDS_P2;PMS_P1;PMS_P2;Temp;Humidity;BMP_temperature;BMP_pressure;BME280_temperature;BME280_humidity;BME280_pressure;Samples;Min_cycle;Max_cycle;Signal;HPM_P1;HPM_P2
2023/05/23 00:00:50;;;;;;;11.03;5.47;;;12.80;99.90;;;;;;4438998;28;659430;-72
2023/05/23 00:03:38;;;;;;;13.10;5.53;;;12.80;99.90;;;;;;4414187;28;660819;-72
2023/05/23 00:06:25;;;;;;;11.53;5.33;;;12.70;99.90;;;;;;4428227;28;660515;-72
2023/05/23 00:09:13;;;;;;;10.50;5.33;;;12.70;99.90;;;;;;4443508;28;659856;-71
2023/05/23 00:12:02;;;;;;;10.77;5.30;;;12.70;99.90;;;;;;4420844;28;659957;-72
2023/05/23 00:14:52;;;;;;;10.00;4.90;;;12.70;99.90;;;;;;4439431;28;659496;-71
2023/05/23 00:17:39;;;;;;;15.37;5.57;;;12.70;99.90;;;;;;4415919;28;660505;-72
2023/05/23 00:20:26;;;;;;;12.25;5.38;;;12.70;99.90;;;;;;4418827;28;659697;-72
2023/05/23 00:23:17;;;;;;;13.13;5.13;;;12.60;99.90;;;;;;4438888;28;660882;-72
2023/05/23 00:26:05;;;;;;;14.20;5.30;;;12.60;99.90;;;;;;4417082;28;659574;-72
2023/05/23 00:28:55;;;;;;;12.40;5.03;;;12.60;99.90;;;;;;4414456;28;660604;-72
2023/05/23 00:31:45;;;;;;;10.30;4.87;;;12.60;99.90;;;;;;4416513;28;660963;-72
2023/05/23 00:34:33;;;;;;;7.33;5.00;;;12.60;99.90;;;;;;4413961;28;660470;-71
2023/05/23 00:37:21;;;;;;;6.57;4.70;;;12.50;99.90;;;;;;4432013;28;659414;-72
2023/05/23 00:40:09;;;;;;;7.97;5.00;;;12.50;99.90;;;;;;4442867;28;659036;-73
2023/05/23 00:42:56;;;;;;;10.13;5.30;;;12.40;99.90;;;;;;4417447;28;658403;-72
2023/05/23 00:45:45;;;;;;;6.50;4.67;;;12.40;99.90;;;;;;4437702;28;660450;-72
2023/05/23 00:48:32;;;;;;;9.20;5.30;;;12.30;99.90;;;;;;4417977;28;659327;-71
2023/05/23 00:51:20;;;;;;;12.25;5.20;;;12.30;99.90;;;;;;4440504;28;660080;-71
2023/05/23 00:54:07;;;;;;;11.77;6.10;;;12.30;99.90;;;;;;4417142;28;660609;-71
2023/05/23 00:56:55;;;;;;;11.33;4.50;;;12.30;99.90;;;;;;4429611;28;660067;-72
2023/05/23 00:59:42;;;;;;;7.87;4.90;;;12.20;99.90;;;;;;4438572;28;661106;-72
2023/05/23 01:02:32;;;;;;;10.00;5.23;;;12.20;99.90;;;;;;4435675;28;659233;-71
2023/05/23 01:05:21;;;;;;;10.27;5.37;;;12.10;99.90;;;;;;4421888;28;660103;-72
2023/05/23 01:08:08;;;;;;;8.83;4.63;;;12.20;99.90;;;;;;4415207;28;660357;-72
2023/05/23 01:10:55;;;;;;;9.45;5.10;;;12.10;99.90;;;;;;4420174;28;659498;-72
2023/05/23 01:13:46;;;;;;;9.03;4.97;;;12.10;99.90;;;;;;4432606;28;659968;-72
2023/05/23 01:16:41;;;;;;;9.53;4.70;;;12.00;99.90;;;;;;4413124;28;660428;-71
2023/05/23 01:19:51;;;;;;;7.03;4.60;;;12.00;99.90;;;;;;4416626;28;658695;-71
2023/05/23 01:22:50;;;;;;;11.80;4.73;;;12.00;99.90;;;;;;4415836;28;658322;-71
2023/05/23 01:25:46;;;;;;;12.73;5.07;;;12.00;99.90;;;;;;4415102;28;659430;-71
2023/05/23 01:28:37;;;;;;;7.97;4.93;;;11.90;99.90;;;;;;4414166;28;660075;-72
2023/05/23 01:31:25;;;;;;;10.67;5.20;;;11.90;99.90;;;;;;4403408;28;658566;-72
2023/05/23 01:34:13;;;;;;;8.10;4.40;;;11.90;99.90;;;;;;4435937;28;661402;-72
2023/05/23 01:37:00;;;;;;;14.07;4.93;;;11.80;99.90;;;;;;4426323;28;658620;-72
2023/05/23 01:39:47;;;;;;;7.47;4.30;;;11.80;99.90;;;;;;4434094;28;661166;-71
2023/05/23 01:42:35;;;;;;;12.93;4.60;;;11.80;99.90;;;;;;4434043;28;659174;-72
2023/05/23 01:45:25;;;;;;;11.88;4.25;;;11.70;99.90;;;;;;4442787;28;660680;-71
2023/05/23 01:48:12;;;;;;;8.83;5.13;;;11.70;99.90;;;;;;4406175;28;660628;-72
2023/05/23 01:50:59;;;;;;;12.17;5.50;;;11.60;99.90;;;;;;4435484;28;658296;-72
2023/05/23 01:53:46;;;;;;;8.70;5.20;;;11.50;99.90;;;;;;4418481;28;659691;-72
2023/05/23 01:56:34;;;;;;;12.87;5.50;;;11.50;99.90;;;;;;4437767;28;659684;-71
2023/05/23 01:59:21;;;;;;;7.97;4.70;;;11.40;99.90;;;;;;4417272;28;659497;-72
2023/05/23 02:02:09;;;;;;;10.10;5.10;;;11.40;99.90;;;;;;4443538;28;660043;-72
2023/05/23 02:04:57;;;;;;;7.83;5.00;;;11.40;99.90;;;;;;4407485;28;663424;-72
2023/05/23 02:07:44;;;;;;;10.83;5.03;;;11.30;99.90;;;;;;4435553;28;659302;-72
2023/05/23 02:10:31;;;;;;;11.37;5.10;;;11.20;99.90;;;;;;4416776;28;660299;-72
2023/05/23 02:13:18;;;;;;;10.63;4.67;;;11.20;99.90;;;;;;4439211;28;660742;-71
2023/05/23 02:16:06;;;;;;;15.43;4.83;;;11.10;99.90;;;;;;4417060;28;659362;-72
2023/05/23 02:18:55;;;;;;;8.17;4.90;;;11.10;99.90;;;;;;4436361;28;660582;-71
2023/05/23 02:21:43;;;;;;;11.53;4.77;;;11.00;99.90;;;;;;4409061;28;660475;-72
2023/05/23 02:24:30;;;;;;;11.90;5.10;;;11.00;99.90;;;;;;4426402;28;659937;-72
2023/05/23 02:27:18;;;;;;;11.50;5.37;;;10.90;1.00;;;;;;4441602;28;660505;-72
2023/05/23 02:30:06;;;;;;;9.43;5.03;;;10.90;1.00;;;;;;4429762;28;658591;-71
2023/05/23 02:32:54;;;;;;;6.87;4.53;;;10.80;1.00;;;;;;4435080;28;658221;-72
2023/05/23 02:35:46;;;;;;;9.80;5.17;;;10.70;1.00;;;;;;4411506;28;657860;-73
2023/05/23 02:38:35;;;;;;;9.13;5.30;;;10.70;1.00;;;;;;4380297;28;658752;-73
2023/05/23 02:41:24;;;;;;;11.53;5.80;;;10.60;1.00;;;;;;4240160;28;657617;-73
2023/05/23 02:44:14;;;;;;;9.87;5.07;;;10.60;1.00;;;;;;4249010;28;659175;-73
2023/05/23 02:47:04;;;;;;;14.33;5.50;;;10.50;1.00;;;;;;4420794;28;658437;-72
2023/05/23 02:49:55;;;;;;;10.73;4.63;;;10.40;99.90;;;;;;4421827;28;658418;-72
2023/05/23 02:52:47;;;;;;;10.77;5.33;;;10.30;99.90;;;;;;4405792;28;661812;-72
2023/05/23 02:55:38;;;;;;;8.67;5.13;;;10.20;99.90;;;;;;4412471;28;659821;-71
2023/05/23 02:58:28;;;;;;;13.43;5.03;;;10.10;99.90;;;;;;4412341;28;659266;-72
2023/05/23 03:01:19;;;;;;;9.97;4.70;;;10.00;99.90;;;;;;4421660;28;660259;-72
2023/05/23 03:04:09;;;;;;;11.25;5.43;;;10.00;99.90;;;;;;4421335;28;658799;-72
2023/05/23 03:07:02;;;;;;;12.30;4.73;;;10.00;99.90;;;;;;4414780;28;659306;-72
2023/05/23 03:09:54;;;;;;;13.90;5.33;;;10.00;99.90;;;;;;4409796;28;659556;-72
2023/05/23 03:12:45;;;;;;;8.50;5.20;;;10.00;99.90;;;;;;4419381;28;660065;-72
2023/05/23 03:15:35;;;;;;;12.77;5.47;;;10.00;99.90;;;;;;4416173;28;659453;-72
2023/05/23 03:18:24;;;;;;;10.37;5.27;;;10.00;99.90;;;;;;4417269;28;660915;-72
2023/05/23 03:21:11;;;;;;;8.57;4.97;;;9.90;99.90;;;;;;4419954;28;660027;-72
2023/05/23 03:23:59;;;;;;;10.40;5.37;;;10.00;99.90;;;;;;4439157;28;657971;-71
2023/05/23 03:26:47;;;;;;;7.50;5.20;;;10.00;99.90;;;;;;4418007;28;660395;-72
2023/05/23 03:29:34;;;;;;;10.10;5.47;;;10.00;99.90;;;;;;4438906;28;658853;-71
2023/05/23 03:32:22;;;;;;;9.23;5.60;;;10.10;99.90;;;;;;4418345;28;659892;-72
2023/05/23 03:35:10;;;;;;;8.40;5.37;;;10.20;99.90;;;;;;4437600;28;658885;-72
2023/05/23 03:37:57;;;;;;;7.70;5.20;;;10.20;99.90;;;;;;4412084;28;660020;-72
2023/05/23 03:40:44;;;;;;;13.90;5.80;;;10.30;99.90;;;;;;4442987;28;659158;-72
2023/05/23 03:43:33;;;;;;;12.97;5.80;;;10.40;99.90;;;;;;4418673;28;659824;-72
2023/05/23 03:46:20;;;;;;;10.80;5.50;;;10.50;99.90;;;;;;4421986;28;660840;-72
2023/05/23 03:49:07;;;;;;;9.53;5.57;;;10.50;99.90;;;;;;4443427;28;659763;-71
2023/05/23 03:51:54;;;;;;;9.37;5.30;;;10.60;99.90;;;;;;4436027;28;658514;-71
2023/05/23 03:54:42;;;;;;;9.87;5.20;;;10.60;99.90;;;;;;4409039;28;659520;-72
2023/05/23 03:57:29;;;;;;;8.83;5.57;;;10.70;99.90;;;;;;4438131;28;658671;-72
2023/05/23 04:00:18;;;;;;;9.37;4.97;;;10.70;99.90;;;;;;4418555;28;658925;-72
2023/05/23 04:03:07;;;;;;;14.03;5.53;;;10.80;99.90;;;;;;4419902;28;660430;-72
2023/05/23 04:05:56;;;;;;;11.30;5.03;;;10.90;99.90;;;;;;4437561;28;659781;-71
2023/05/23 04:08:44;;;;;;;13.57;5.20;;;10.90;99.90;;;;;;4417023;28;660759;-71
2023/05/23 04:11:31;;;;;;;8.40;5.37;;;11.00;99.90;;;;;;4409791;28;659585;-72
2023/05/23 04:14:19;;;;;;;7.90;4.90;;;11.10;99.90;;;;;;4443137;28;658737;-72
2023/05/23 04:17:08;;;;;;;10.37;5.40;;;11.20;99.90;;;;;;4419206;28;658823;-72
2023/05/23 04:19:55;;;;;;;10.80;5.80;;;11.30;99.90;;;;;;4420515;28;660286;-72
2023/05/23 04:22:42;;;;;;;10.73;5.40;;;11.40;99.90;;;;;;4441700;28;659671;-72
2023/05/23 04:25:30;;;;;;;12.73;5.40;;;11.60;99.90;;;;;;4432320;28;659494;-72
2023/05/23 04:28:17;;;;;;;10.13;5.00;;;11.70;99.90;;;;;;4440692;28;660479;-72
2023/05/23 04:31:05;;;;;;;14.43;5.80;;;11.80;99.90;;;;;;4437218;28;660077;-72
2023/05/23 04:33:53;;;;;;;12.33;6.13;;;11.90;99.90;;;;;;4412313;28;660777;-71
2023/05/23 04:36:43;;;;;;;11.73;6.27;;;12.10;99.90;;;;;;4413474;28;659966;-72
2023/05/23 04:39:30;;;;;;;10.67;6.07;;;12.20;99.90;;;;;;4419525;28;659738;-72
2023/05/23 04:42:23;;;;;;;8.47;5.60;;;12.30;99.90;;;;;;4442548;28;660960;-71
2023/05/23 04:45:11;;;;;;;11.43;5.70;;;12.50;99.90;;;;;;4409005;28;659107;-72
2023/05/23 04:47:58;;;;;;;11.73;5.53;;;12.70;99.90;;;;;;4437728;28;660320;-71
2023/05/23 04:50:47;;;;;;;8.43;5.57;;;12.80;99.90;;;;;;4420983;28;659349;-72
2023/05/23 04:53:35;;;;;;;15.10;6.20;;;12.90;99.90;;;;;;4433044;28;658663;-72
2023/05/23 04:56:26;;;;;;;11.30;5.63;;;13.10;99.90;;;;;;4415068;28;660767;-72
2023/05/23 04:59:13;;;;;;;9.33;5.30;;;13.20;99.90;;;;;;4414654;28;660738;-72
2023/05/23 05:02:00;;;;;;;9.67;5.00;;;13.40;99.90;;;;;;4422634;28;658811;-72
2023/05/23 05:04:47;;;;;;;10.33;5.30;;;13.50;99.90;;;;;;4438897;28;659222;-72
2023/05/23 05:07:36;;;;;;;11.63;5.10;;;13.60;99.90;;;;;;4439789;28;659167;-72
2023/05/23 05:10:23;;;;;;;14.30;5.30;;;13.80;99.90;;;;;;4411473;28;660486;-72
2023/05/23 05:13:10;;;;;;;14.03;4.87;;;14.00;99.90;;;;;;4420827;28;660050;-73
2023/05/23 05:15:57;;;;;;;11.73;5.30;;;14.10;99.90;;;;;;4434136;28;660477;-72
2023/05/23 05:18:45;;;;;;;11.90;5.90;;;14.30;99.90;;;;;;4435636;28;659712;-72
2023/05/23 05:21:32;;;;;;;9.83;5.50;;;14.40;99.90;;;;;;4422269;28;660404;-72
2023/05/23 05:24:22;;;;;;;9.53;5.53;;;14.50;99.90;;;;;;4422769;28;658977;-72
2023/05/23 05:27:10;;;;;;;13.40;5.50;;;14.70;99.90;;;;;;4422889;28;659473;-72
2023/05/23 05:30:03;;;;;;;13.23;5.90;;;14.80;99.90;;;;;;4398741;28;659738;-72
2023/05/23 05:32:50;;;;;;;14.37;6.17;;;14.90;99.90;;;;;;4385489;28;659773;-72
2023/05/23 05:35:38;;;;;;;13.03;6.73;;;15.10;99.90;;;;;;4422525;28;660517;-71
2023/05/23 05:38:25;;;;;;;14.80;7.38;;;15.20;99.90;;;;;;4381032;28;660227;-72
2023/05/23 05:41:14;;;;;;;19.53;8.17;;;15.40;99.90;;;;;;4422882;28;659832;-71
2023/05/23 05:44:01;;;;;;;12.63;7.40;;;15.50;99.90;;;;;;4402270;28;659611;-71
2023/05/23 05:46:48;;;;;;;12.63;5.97;;;15.70;99.90;;;;;;4421117;28;660874;-71
2023/05/23 05:49:35;;;;;;;11.13;5.50;;;15.80;99.90;;;;;;4395923;28;659990;-72
2023/05/23 05:52:22;;;;;;;7.10;4.57;;;16.00;99.90;;;;;;4421606;28;660761;-71
2023/05/23 05:55:11;;;;;;;16.93;5.40;;;16.20;99.90;;;;;;4410199;28;659514;-72
2023/05/23 05:57:59;;;;;;;9.97;5.07;;;16.40;99.90;;;;;;4425404;28;660624;-71
2023/05/23 06:00:47;;;;;;;15.43;5.03;;;16.50;99.90;;;;;;4409126;28;658638;-71
2023/05/23 06:03:34;;;;;;;11.77;5.10;;;16.50;99.90;;;;;;4428969;28;659111;-72
2023/05/23 06:06:22;;;;;;;12.47;5.00;;;16.60;99.90;;;;;;4401935;28;659716;-72
2023/05/23 06:09:09;;;;;;;10.70;5.07;;;16.70;99.90;;;;;;4425202;28;659475;-71
2023/05/23 06:11:56;;;;;;;8.87;4.47;;;16.90;99.90;;;;;;4398840;28;660068;-72
2023/05/23 06:14:45;;;;;;;7.57;4.90;;;17.00;99.90;;;;;;4417886;28;659654;-71
2023/05/23 06:17:32;;;;;;;8.80;4.73;;;17.00;99.90;;;;;;4403576;28;660103;-77
2023/05/23 06:20:19;;;;;;;9.27;4.80;;;17.10;99.90;;;;;;4423234;28;658439;-78
2023/05/23 06:23:07;;;;;;;6.67;3.93;;;17.20;99.90;;;;;;4408148;28;658910;-77
2023/05/23 06:25:54;;;;;;;8.10;4.80;;;17.40;99.90;;;;;;4425247;28;659312;-77
2023/05/23 06:28:42;;;;;;;7.27;4.27;;;17.60;99.90;;;;;;4403892;28;658942;-77
2023/05/23 06:31:30;;;;;;;8.33;4.73;;;17.80;99.90;;;;;;4428467;28;658452;-77
2023/05/23 06:34:17;;;;;;;10.97;4.57;;;18.00;99.90;;;;;;4403681;28;659899;-79
2023/05/23 06:37:05;;;;;;;16.00;4.87;;;18.10;99.90;;;;;;4421714;28;660123;-77
2023/05/23 06:39:52;;;;;;;8.90;4.50;;;18.20;99.90;;;;;;4424686;28;659591;-77
2023/05/23 06:42:40;;;;;;;11.53;4.57;;;18.30;99.90;;;;;;4428711;28;658965;-80
2023/05/23 06:45:27;;;;;;;8.63;4.40;;;18.50;99.90;;;;;;4394663;28;659793;-78
2023/05/23 06:48:15;;;;;;;9.67;4.93;;;18.60;99.90;;;;;;4423880;28;658696;-79
2023/05/23 06:51:03;;;;;;;11.25;4.47;;;18.80;99.90;;;;;;4396326;28;659563;-80
2023/05/23 06:53:50;;;;;;;8.33;4.40;;;18.90;99.90;;;;;;4417085;28;660231;-75
2023/05/23 06:56:37;;;;;;;9.23;4.67;;;19.10;99.90;;;;;;4427613;28;659095;-80
2023/05/23 06:59:24;;;;;;;10.23;4.70;;;19.20;99.90;;;;;;4429737;28;659112;-81
2023/05/23 07:02:12;;;;;;;7.60;4.13;;;19.10;99.90;;;;;;4397076;28;660094;-79
2023/05/23 07:05:00;;;;;;;10.70;4.63;;;19.20;99.90;;;;;;4428608;28;658268;-80
2023/05/23 07:07:47;;;;;;;8.50;4.43;;;19.10;99.90;;;;;;4402552;28;660189;-79
2023/05/23 07:10:35;;;;;;;7.80;4.60;;;19.40;99.90;;;;;;4414729;28;658707;-76
2023/05/23 07:13:22;;;;;;;12.90;4.93;;;19.70;99.90;;;;;;4427967;28;659743;-80
2023/05/23 07:16:09;;;;;;;8.17;4.60;;;19.80;99.90;;;;;;4426885;28;660112;-79
2023/05/23 07:18:57;;;;;;;11.93;4.67;;;20.00;99.90;;;;;;4406682;28;659367;-79
2023/05/23 07:21:45;;;;;;;13.50;4.80;;;20.20;99.90;;;;;;4423730;28;660305;-80
2023/05/23 07:24:32;;;;;;;9.30;4.40;;;20.20;99.90;;;;;;4408278;28;660068;-79
2023/05/23 07:27:20;;;;;;;7.77;4.47;;;20.30;99.90;;;;;;4413590;28;659241;-75
2023/05/23 07:30:09;;;;;;;10.53;4.67;;;20.50;99.90;;;;;;4415496;28;659578;-79
2023/05/23 07:32:56;;;;;;;8.93;4.50;;;20.60;99.90;;;;;;4402404;28;660033;-79
2023/05/23 07:35:44;;;;;;;13.07;4.80;;;20.60;99.40;;;;;;4417151;28;661136;-78
2023/05/23 07:38:33;;;;;;;9.60;4.50;;;20.70;99.90;;;;;;4400167;28;660062;-80
2023/05/23 07:41:20;;;;;;;13.40;5.00;;;21.00;99.90;;;;;;4416495;28;658523;-76
2023/05/23 07:44:08;;;;;;;7.70;4.40;;;21.20;99.90;;;;;;4426280;28;661238;-79
2023/05/23 07:46:55;;;;;;;14.50;5.07;;;21.40;98.60;;;;;;4402647;28;659630;-76
2023/05/23 07:49:43;;;;;;;9.33;4.50;;;21.60;95.80;;;;;;4424226;28;660251;-77
2023/05/23 07:52:30;;;;;;;10.23;4.50;;;21.50;93.70;;;;;;4399549;28;658808;-75
2023/05/23 07:55:20;;;;;;;12.23;4.13;;;21.20;94.30;;;;;;4415954;28;660984;-77
2023/05/23 07:58:07;;;;;;;8.70;4.63;;;21.00;93.90;;;;;;4398865;28;660731;-78
2023/05/23 08:00:54;;;;;;;10.03;4.90;;;21.40;97.20;;;;;;4418194;28;659112;-81
2023/05/23 08:03:41;;;;;;;12.53;5.33;;;21.60;95.20;;;;;;4402354;28;660453;-81
2023/05/23 08:06:28;;;;;;;11.87;5.07;;;21.80;96.70;;;;;;4414984;28;660596;-80
2023/05/23 08:09:16;;;;;;;12.33;4.90;;;22.20;97.50;;;;;;4397064;28;660883;-78
2023/05/23 08:12:05;;;;;;;11.60;4.60;;;22.30;96.30;;;;;;4426461;28;660288;-79
2023/05/23 08:14:52;;;;;;;9.30;4.77;;;22.50;93.10;;;;;;4398397;28;660620;-79
2023/05/23 08:17:39;;;;;;;9.13;4.80;;;22.50;93.80;;;;;;4420495;28;659695;-80
2023/05/23 08:20:29;;;;;;;9.40;4.53;;;22.70;95.40;;;;;;4404964;28;658635;-79
2023/05/23 08:23:17;;;;;;;10.53;4.40;;;22.90;92.60;;;;;;4407219;28;659505;-79
2023/05/23 08:26:04;;;;;;;6.57;4.50;;;23.20;93.40;;;;;;4412698;28;660142;-76
2023/05/23 08:28:53;;;;;;;12.23;5.77;;;23.40;87.90;;;;;;4402907;28;658648;-80
2023/05/23 08:31:40;;;;;;;10.90;4.63;;;23.60;85.40;;;;;;4404206;28;660013;-76
2023/05/23 08:34:27;;;;;;;14.93;4.80;;;23.40;94.10;;;;;;4352875;28;660403;-76
2023/05/23 08:37:15;;;;;;;6.63;4.17;;;23.40;85.90;;;;;;4242114;28;659577;-76
2023/05/23 08:40:03;;;;;;;10.07;4.30;;;23.60;90.00;;;;;;4252820;28;659300;-75
2023/05/23 08:42:50;;;;;;;9.57;4.40;;;23.70;83.60;;;;;;4395871;28;659492;-75
2023/05/23 08:45:39;;;;;;;6.33;4.00;;;23.80;83.50;;;;;;4422458;28;659388;-77
2023/05/23 08:48:26;;;;;;;10.60;4.13;;;24.00;81.30;;;;;;4400221;28;658930;-78
2023/05/23 08:51:14;;;;;;;13.43;4.07;;;24.30;83.90;;;;;;4421761;28;659490;-77
2023/05/23 08:54:01;;;;;;;7.65;4.53;;;24.50;80.20;;;;;;4397950;28;659936;-77
2023/05/23 08:56:48;;;;;;;14.88;4.35;;;24.60;82.60;;;;;;4423792;28;659478;-77
2023/05/23 08:59:35;;;;;;;12.13;4.20;;;24.60;78.00;;;;;;4394965;28;660440;-75
2023/05/23 09:02:24;;;;;;;9.13;4.00;;;24.90;76.80;;;;;;4423398;28;661762;-78
2023/05/23 09:05:11;;;;;;;9.20;4.47;;;24.90;68.60;;;;;;4404541;28;658627;-77
2023/05/23 09:07:58;;;;;;;7.30;4.03;;;24.80;72.00;;;;;;4420820;28;660002;-77
2023/05/23 09:10:46;;;;;;;13.73;4.47;;;24.90;69.20;;;;;;4404259;28;659349;-77
2023/05/23 09:13:33;;;;;;;5.40;3.60;;;25.00;75.40;;;;;;4424624;28;660674;-79
2023/05/23 09:16:20;;;;;;;11.10;4.10;;;24.90;69.70;;;;;;4398925;28;658862;-75
2023/05/23 09:19:12;;;;;;;18.80;4.25;;;24.90;75.80;;;;;;4420061;28;661183;-78
2023/05/23 09:22:00;;;;;;;9.68;3.85;;;24.70;68.40;;;;;;4411408;28;659648;-79
2023/05/23 09:24:47;;;;;;;10.43;4.53;;;24.40;68.20;;;;;;4418306;28;659606;-77
2023/05/23 09:27:35;;;;;;;10.63;4.28;;;24.60;74.70;;;;;;4433596;28;660304;-78
2023/05/23 09:30:22;;;;;;;11.60;4.43;;;24.60;71.70;;;;;;4414157;28;661609;-78
2023/05/23 09:33:11;;;;;;;12.70;4.05;;;24.90;75.40;;;;;;4429168;28;659821;-77
2023/05/23 09:35:59;;;;;;;8.48;4.55;;;25.40;75.80;;;;;;4414449;28;659625;-77
2023/05/23 09:38:47;;;;;;;11.70;4.20;;;25.80;76.70;;;;;;4414370;28;658648;-75
2023/05/23 09:41:35;;;;;;;10.43;4.43;;;26.10;72.80;;;;;;4438321;28;660298;-79
2023/05/23 09:44:23;;;;;;;8.43;4.60;;;26.00;68.40;;;;;;4411230;28;661382;-77
2023/05/23 09:47:10;;;;;;;10.25;4.60;;;25.90;67.20;;;;;;4428743;28;658497;-75
2023/05/23 09:49:57;;;;;;;6.50;4.15;;;26.00;70.40;;;;;;4426004;28;660796;-75
2023/05/23 09:52:47;;;;;;;6.88;3.97;;;26.20;70.20;;;;;;4434711;28;658916;-75
2023/05/23 09:55:34;;;;;;;8.93;4.38;;;26.20;65.70;;;;;;4436919;28;659126;-79
2023/05/23 09:58:21;;;;;;;11.63;4.30;;;26.40;71.50;;;;;;4420641;28;658981;-77
2023/05/23 10:01:10;;;;;;;10.13;4.75;;;26.60;70.50;;;;;;4435791;28;660381;-76
2023/05/23 10:03:58;;;;;;;11.70;4.50;;;26.40;72.00;;;;;;4410419;28;660419;-78
2023/05/23 10:06:50;;;;;;;10.55;4.50;;;26.20;66.60;;;;;;4422754;28;660003;-76
2023/05/23 10:09:39;;;;;;;7.90;4.07;;;26.40;68.70;;;;;;4409353;28;660879;-77
2023/05/23 10:12:45;;;;;;;10.23;4.40;;;26.50;67.90;;;;;;4419416;28;658775;-78
2023/05/23 10:15:36;;;;;;;7.53;4.25;;;26.40;66.80;;;;;;4388343;28;660062;-78
2023/05/23 10:18:25;;;;;;;10.95;4.20;;;26.40;65.90;;;;;;4420975;28;659948;-77
2023/05/23 10:21:13;;;;;;;10.48;4.45;;;26.40;62.70;;;;;;4412620;28;660675;-79
2023/05/23 10:24:00;;;;;;;14.13;4.72;;;26.50;65.70;;;;;;4422466;28;659696;-75
2023/05/23 10:26:49;;;;;;;10.32;4.10;;;26.10;66.60;;;;;;4438702;28;660601;-78
2023/05/23 10:29:36;;;;;;;10.90;4.40;;;26.10;63.50;;;;;;4414534;28;660308;-78
2023/05/23 10:32:23;;;;;;;12.98;3.90;;;26.30;59.80;;;;;;4437255;28;660869;-79
2023/05/23 10:35:14;;;;;;;10.40;4.38;;;26.30;64.20;;;;;;4418251;28;660044;-77
2023/05/23 10:38:04;;;;;;;8.57;3.88;;;26.60;65.40;;;;;;4415050;28;659668;-78
2023/05/23 10:40:54;;;;;;;6.32;3.65;;;27.00;62.20;;;;;;4409053;28;658654;-77
2023/05/23 10:43:47;;;;;;;6.15;3.70;;;27.00;57.00;;;;;;4420087;28;659448;-80
2023/05/23 10:46:56;;;;;;;6.63;4.00;;;26.30;56.00;;;;;;4417183;28;659204;-80
2023/05/23 10:49:44;;;;;;;7.72;3.75;;;26.20;52.10;;;;;;4415970;28;658734;-79
2023/05/23 10:52:32;;;;;;;10.35;4.00;;;25.80;57.40;;;;;;4417214;28;658912;-75
2023/05/23 10:55:21;;;;;;;8.38;3.72;;;25.60;56.20;;;;;;4440529;28;659826;-75
2023/05/23 10:58:12;;;;;;;9.20;4.03;;;26.10;60.40;;;;;;4434655;28;657899;-79
2023/05/23 11:01:02;;;;;;;9.38;4.20;;;26.60;56.40;;;;;;4401530;28;659453;-76
2023/05/23 11:03:51;;;;;;;5.22;3.38;;;27.00;56.40;;;;;;4439679;28;658805;-76
2023/05/23 11:06:40;;;;;;;16.05;4.13;;;27.40;54.80;;;;;;4441620;28;660112;-80
2023/05/23 11:09:27;;;;;;;6.43;3.55;;;27.40;49.60;;;;;;4415542;28;661102;-79
2023/05/23 11:12:14;;;;;;;5.57;3.58;;;27.00;53.40;;;;;;4441086;28;658745;-78
2023/05/23 11:15:01;;;;;;;12.25;3.97;;;27.40;55.60;;;;;;4415426;28;659487;-78
2023/05/23 11:17:54;;;;;;;7.95;3.63;;;27.80;56.00;;;;;;4437472;28;659963;-79
2023/05/23 11:20:41;;;;;;;8.40;3.80;;;28.00;50.80;;;;;;4402015;28;659327;-80
2023/05/23 11:23:39;;;;;;;12.10;3.85;;;28.30;51.70;;;;;;4443164;28;659018;-78
2023/05/23 11:26:29;;;;;;;7.47;4.10;;;28.40;50.00;;;;;;4423080;28;659664;-78
2023/05/23 11:29:17;;;;;;;9.15;4.07;;;28.50;53.30;;;;;;4423105;28;659808;-79
2023/05/23 11:32:10;;;;;;;5.75;3.97;;;28.30;49.00;;;;;;4432910;28;658400;-75
2023/05/23 11:35:01;;;;;;;13.02;4.47;;;28.30;52.00;;;;;;4414787;28;659429;-79
2023/05/23 11:37:48;;;;;;;11.57;4.18;;;28.30;53.70;;;;;;4420834;28;660042;-79
2023/05/23 11:40:36;;;;;;;9.15;3.88;;;28.30;53.20;;;;;;4409658;28;659804;-75
2023/05/23 11:43:23;;;;;;;7.05;3.95;;;28.30;50.90;;;;;;4439692;28;659836;-77
2023/05/23 11:46:10;;;;;;;6.28;3.80;;;28.50;47.30;;;;;;4424634;28;658688;-77
2023/05/23 11:48:58;;;;;;;7.95;3.50;;;28.60;51.30;;;;;;4434924;28;659350;-78
2023/05/23 11:51:47;;;;;;;7.35;4.22;;;28.70;48.40;;;;;;4428739;28;658557;-75
2023/05/23 11:54:34;;;;;;;10.48;3.97;;;28.60;49.90;;;;;;4441144;28;659050;-78
2023/05/23 11:57:21;;;;;;;8.00;3.87;;;28.70;51.20;;;;;;4410916;28;659485;-76
2023/05/23 12:00:10;;;;;;;10.27;3.90;;;28.70;48.70;;;;;;4440890;28;659389;-76
2023/05/23 12:02:57;;;;;;;7.03;4.03;;;28.70;49.30;;;;;;4414932;28;661111;-77
2023/05/23 12:05:44;;;;;;;5.03;3.67;;;29.10;47.90;;;;;;4437599;28;658917;-78
2023/05/23 12:08:33;;;;;;;10.38;3.80;;;29.70;45.10;;;;;;4418669;28;658693;-75
2023/05/23 12:11:21;;;;;;;5.00;3.80;;;30.30;47.80;;;;;;4421064;28;659575;-78
2023/05/23 12:14:08;;;;;;;7.38;4.45;;;30.00;45.20;;;;;;4437039;28;659755;-79
2023/05/23 12:16:56;;;;;;;9.20;3.90;;;30.70;45.70;;;;;;4419045;28;659778;-80
2023/05/23 12:19:45;;;;;;;6.95;3.70;;;30.80;46.60;;;;;;4440562;28;658558;-82
2023/05/23 12:22:33;;;;;;;4.85;3.83;;;30.70;43.80;;;;;;4417447;28;659501;-75
2023/05/23 12:25:22;;;;;;;6.05;3.97;;;30.60;44.20;;;;;;4430349;28;659084;-78
2023/05/23 12:28:12;;;;;;;9.05;3.60;;;30.60;44.10;;;;;;4442709;28;659051;-81
2023/05/23 12:30:59;;;;;;;9.37;4.00;;;30.80;44.00;;;;;;4409039;28;658727;-79
2023/05/23 12:33:47;;;;;;;5.57;3.67;;;29.80;44.60;;;;;;4417980;28;659535;-75
2023/05/23 12:36:37;;;;;;;12.20;3.90;;;29.60;42.90;;;;;;4442360;28;658442;-75
2023/05/23 12:39:25;;;;;;;13.87;3.90;;;30.00;44.70;;;;;;4416023;28;660505;-78
2023/05/23 12:42:13;;;;;;;6.82;3.80;;;30.00;43.90;;;;;;4409154;28;661111;-76
2023/05/23 12:45:01;;;;;;;5.63;3.78;;;30.00;44.10;;;;;;4416046;28;659125;-75
2023/05/23 12:47:48;;;;;;;11.23;4.00;;;30.10;44.20;;;;;;4442599;28;659692;-78
2023/05/23 12:50:35;;;;;;;10.57;4.43;;;30.20;43.40;;;;;;4422940;28;659805;-76
2023/05/23 12:53:22;;;;;;;10.30;3.55;;;29.90;43.60;;;;;;4436979;28;661068;-80
2023/05/23 12:56:10;;;;;;;10.38;4.35;;;29.60;45.20;;;;;;4433808;28;660130;-76
2023/05/23 12:59:00;;;;;;;14.32;4.25;;;29.50;44.10;;;;;;4444965;28;659689;-79
2023/05/23 13:01:47;;;;;;;7.97;4.07;;;29.30;45.20;;;;;;4411263;28;660023;-80
2023/05/23 13:04:35;;;;;;;10.63;3.85;;;29.10;45.90;;;;;;4433414;28;658534;-77
2023/05/23 13:07:22;;;;;;;7.05;4.28;;;28.90;43.90;;;;;;4442480;28;659941;-79
2023/05/23 13:10:11;;;;;;;10.07;3.78;;;28.90;46.10;;;;;;4432346;28;658723;-77
2023/05/23 13:12:58;;;;;;;7.50;3.97;;;28.60;47.20;;;;;;4440909;28;660063;-75
2023/05/23 13:15:47;;;;;;;7.10;3.80;;;28.10;46.00;;;;;;4426461;28;659338;-76
2023/05/23 13:18:34;;;;;;;11.23;4.35;;;28.00;48.20;;;;;;4432096;28;659514;-78
2023/05/23 13:21:22;;;;;;;7.78;3.95;;;27.80;47.80;;;;;;4414695;28;659860;-80
2023/05/23 13:24:09;;;;;;;8.60;3.72;;;27.40;49.80;;;;;;4439451;28;658288;-79
2023/05/23 13:26:56;;;;;;;8.85;4.00;;;27.20;49.30;;;;;;4423915;28;659733;-81
2023/05/23 13:29:43;;;;;;;9.35;4.25;;;27.00;50.30;;;;;;4439745;28;659440;-80
2023/05/23 13:32:32;;;;;;;9.95;3.72;;;26.60;49.90;;;;;;4419918;28;658724;-78
2023/05/23 13:35:19;;;;;;;7.95;3.97;;;26.00;51.60;;;;;;4435448;28;658891;-79
2023/05/23 13:38:06;;;;;;;8.98;4.22;;;25.50;51.80;;;;;;4416314;28;659596;-79
2023/05/23 13:40:54;;;;;;;9.38;3.90;;;24.90;54.60;;;;;;4437235;28;659111;-80
2023/05/23 13:43:41;;;;;;;12.43;5.28;;;24.30;58.20;;;;;;4416679;28;658725;-81
2023/05/23 13:46:28;;;;;;;17.85;6.00;;;23.30;58.70;;;;;;4439051;28;659771;-79
2023/05/23 13:49:17;;;;;;;20.85;6.35;;;22.40;66.00;;;;;;4413306;28;660207;-80
2023/05/23 13:52:05;;;;;;;18.60;6.17;;;21.70;75.60;;;;;;4431369;28;660243;-80
2023/05/23 13:54:52;;;;;;;15.40;6.33;;;21.00;93.50;;;;;;4413324;28;660252;-78
2023/05/23 13:57:39;;;;;;;21.13;6.80;;;20.70;99.90;;;;;;4436931;28;660018;-80
2023/05/23 14:00:26;;;;;;;16.40;6.50;;;20.50;99.90;;;;;;4415102;28;659744;-81
2023/05/23 14:03:14;;;;;;;16.33;7.07;;;20.20;99.90;;;;;;4438571;28;660614;-81
2023/05/23 14:06:03;;;;;;;16.30;8.07;;;19.60;99.90;;;;;;4425771;28;659596;-81
2023/05/23 14:08:51;;;;;;;18.03;7.37;;;19.40;99.90;;;;;;4415591;28;659705;-74
2023/05/23 14:11:38;;;;;;;15.87;7.43;;;19.20;99.90;;;;;;4439562;28;660258;-79
2023/05/23 14:14:25;;;;;;;15.97;8.23;;;19.20;99.90;;;;;;4425339;28;660698;-78
2023/05/23 14:17:15;;;;;;;18.33;8.20;;;19.20;99.90;;;;;;4438792;28;660564;-82